SE Cape Cod 30NM East of Nantucket, MA current weather conditions

sailwx.info

Wind from 110 at 5 knots gusting 5

Wave height 0.5 meters (1 feet), 6 second period

Air temperature 21.9° C
Dewpoint 21.9° C

Last reported at 2020-Aug-04 12:50 UTC.
Time now 2020-Aug-04 14:12 UTC

Location: N 42°12' W 070°06'.
View on Google Maps.

See reports from other nearby stations

  
Tides and Currents Weather Stations Pressure Air Temp Water Temp Dewpoint Dewpoint Depression Visibility Wind Speed Wind Dir Waves Ship Positions
date/time (UTC)wind fromknots sea level pressurealtimeterstation pressurevisibilityair tempwater tempwave heightnotes
2020-Aug-04 12:50 110 5 gusting 5 21.9 0.5
2020-Aug-04 11:50 130 3 gusting 5 21.8 0.4
2020-Aug-04 10:50 110 5 gusting 5 21.8 0.4
2020-Aug-04 09:50 160 3 gusting 5 22.3 0.5
2020-Aug-04 08:50 200 3 gusting 5 22.2 0.4
2020-Aug-04 07:50 190 5 gusting 5 22.3 0.4
2020-Aug-04 06:50 170 1 gusting 3 22.1 0.4
2020-Aug-04 05:50 230 3 gusting 5 22.8 0.4
2020-Aug-04 04:50 270 3 gusting 5 22.9 0.5
2020-Aug-04 03:50 230 5 gusting 7 22.8 0.6
2020-Aug-04 02:50 220 3 gusting 5 22.6 0.6
2020-Aug-04 01:50 230 7 gusting 9 23.5 0.7
2020-Aug-04 00:50 230 5 gusting 7 23.1 0.8
2020-Aug-03 23:50 230 9 gusting 11 24.5 0.8
2020-Aug-03 22:50 230 11 gusting 15 25.6 0.8
2020-Aug-03 21:50 210 17 gusting 21 26.0 1.0
2020-Aug-03 20:50 210 17 gusting 21 25.1 0.8
2020-Aug-03 19:50 210 17 gusting 21 25.1 0.8
2020-Aug-03 18:50 210 19 gusting 23 25.1 0.7
2020-Aug-03 17:50 210 17 gusting 19 24.9 0.7
2020-Aug-03 16:50 210 13 gusting 15 24.6 0.7
2020-Aug-03 15:50 210 17 gusting 19 24.9 0.8
2020-Aug-03 14:50 200 15 gusting 17 25.0 0.7
2020-Aug-03 13:50 200 11 gusting 13 24.0 0.8
2020-Aug-03 12:50 200 15 gusting 19 23.6 0.8
2020-Aug-03 11:50 200 13 gusting 15 23.6 0.9
2020-Aug-03 10:50 200 11 gusting 15 23.4 0.9
2020-Aug-03 09:50 200 15 gusting 17 23.4 0.8
2020-Aug-03 08:50 200 15 gusting 17 23.7 0.8
2020-Aug-03 07:50 200 15 gusting 17 23.8 0.9
2020-Aug-03 06:50 190 15 gusting 17 24.0 0.9
2020-Aug-03 05:50 190 15 gusting 17 23.9 0.9
2020-Aug-03 04:50 180 13 gusting 15 23.4 0.8
2020-Aug-03 03:50 170 11 gusting 13 22.5 0.8
2020-Aug-03 02:50 150 11 gusting 13 21.2 0.9
2020-Aug-03 01:50 160 17 gusting 19 22.4 1.0
2020-Aug-03 00:50 170 19 gusting 25 23.0 1.1
2020-Aug-02 23:50 170 19 gusting 23 23.1 0.9
2020-Aug-02 22:50 170 15 gusting 19 23.6 0.9
2020-Aug-02 21:50 170 17 gusting 21 24.4 0.9
2020-Aug-02 20:50 170 17 gusting 19 24.3 0.8
2020-Aug-02 19:50 180 17 gusting 21 24.5 0.8
2020-Aug-02 18:50 170 13 gusting 17 24.0 0.7
2020-Aug-02 17:50 150 11 gusting 11 22.5 0.6
2020-Aug-02 16:50 170 11 gusting 13 24.0 0.5
2020-Aug-02 15:50 160 11 gusting 13 24.0 0.5
2020-Aug-02 14:50 160 9 gusting 11 23.9 0.5